Time;durP1;ratioP1;P1;durP2;ratioP2;P2;SDS_P1;SDS_P2;PMS_P1;PMS_P2;Temp;Humidity;BMP_temperature;BMP_pressure;BME280_temperature;BME280_humidity;BME280_pressure;Samples;Min_cycle;Max_cycle;Signal;HPM_P1;HPM_P2
2021/12/02 00:01:30;;;;;;;10.00;5.80;;;;;;;2.51;61.78;99961.11;105354;1278;70755;-69
2021/12/02 00:03:59;;;;;;;9.80;5.30;;;;;;;2.52;61.62;99964.48;105376;1278;68812;-69
2021/12/02 00:06:28;;;;;;;9.70;5.70;;;;;;;2.52;61.69;99966.05;105417;1275;74209;-72
2021/12/02 00:08:57;;;;;;;8.70;5.50;;;;;;;2.53;61.62;99960.80;105291;1278;59219;-71
2021/12/02 00:11:25;;;;;;;10.50;6.30;;;;;;;2.60;62.11;99961.35;105348;1277;59568;-70
2021/12/02 00:13:57;;;;;;;10.80;6.00;;;;;;;2.65;61.84;99954.88;105348;1278;74475;-70
2021/12/02 00:21:50;;;;;;;7.10;5.20;;;;;;;2.69;61.97;99957.64;106114;1266;73184;-68
2021/12/02 00:24:20;;;;;;;7.50;5.40;;;;;;;2.71;61.69;99956.49;106178;1267;60305;-72
2021/12/02 00:26:50;;;;;;;10.60;5.60;;;;;;;2.82;62.10;99952.98;106156;1268;60544;-73
2021/12/02 00:29:21;;;;;;;9.90;5.50;;;;;;;2.88;61.67;99951.61;105730;1272;74199;-74
2021/12/02 00:31:51;;;;;;;8.40;6.20;;;;;;;2.94;61.33;99949.23;105792;1270;73000;-71
2021/12/02 00:34:22;;;;;;;7.90;5.30;;;;;;;2.96;61.29;99948.48;106155;1269;68581;-71
2021/12/02 00:36:51;;;;;;;8.80;5.40;;;;;;;2.98;61.26;99943.69;105994;1268;73146;-71
2021/12/02 00:39:19;;;;;;;11.10;5.70;;;;;;;2.99;61.55;99941.60;106164;1269;60907;-70
2021/12/02 00:41:48;;;;;;;8.10;4.90;;;;;;;3.00;61.43;99946.54;106145;1270;62079;-69
2021/12/02 00:44:21;;;;;;;9.40;5.20;;;;;;;3.01;61.29;99948.17;105991;1271;71788;-71
2021/12/02 00:46:50;;;;;;;6.50;3.60;;;;;;;3.05;61.21;99950.40;106123;1269;71701;-72
2021/12/02 00:49:19;;;;;;;11.00;6.10;;;;;;;3.12;61.07;99949.30;106046;1268;69773;-70
2021/12/02 00:51:56;;;;;;;7.40;4.70;;;;;;;3.16;61.08;99939.27;105756;1271;73643;-72
2021/12/02 00:54:26;;;;;;;8.40;5.20;;;;;;;3.22;60.80;99943.61;105974;1269;59214;-73
2021/12/02 00:56:54;;;;;;;7.30;5.10;;;;;;;3.30;60.10;99939.55;105946;1271;61204;-72
2021/12/02 00:59:24;;;;;;;9.20;6.40;;;;;;;3.42;60.00;99948.20;105954;1270;72499;-72
2021/12/02 01:01:52;;;;;;;8.10;5.30;;;;;;;3.50;60.03;99952.95;105863;1271;71828;-72
2021/12/02 01:04:25;;;;;;;8.10;5.20;;;;;;;3.55;59.40;99948.02;105883;1271;67846;-72
2021/12/02 01:06:54;;;;;;;7.00;4.20;;;;;;;3.59;59.50;99940.90;105788;1271;75015;-71
2021/12/02 01:09:23;;;;;;;9.50;6.00;;;;;;;3.61;59.36;99934.02;106020;1270;59688;-70
2021/12/02 01:11:54;;;;;;;10.40;6.20;;;;;;;3.65;59.07;99928.16;106089;1268;58949;-71
2021/12/02 01:14:23;;;;;;;7.50;4.80;;;;;;;3.67;58.97;99921.52;105886;1270;72974;-73
2021/12/02 01:16:52;;;;;;;10.70;5.20;;;;;;;3.70;59.00;99924.09;106017;1271;69670;-70
2021/12/02 01:19:21;;;;;;;8.60;4.70;;;;;;;3.75;59.06;99927.79;106144;1268;69827;-70
2021/12/02 01:21:50;;;;;;;7.80;4.70;;;;;;;3.79;58.81;99922.56;106140;1269;72556;-70
2021/12/02 01:24:20;;;;;;;7.60;4.80;;;;;;;3.85;59.49;99913.96;105816;1271;59827;-71
2021/12/02 01:26:52;;;;;;;6.70;4.60;;;;;;;3.88;59.03;99901.20;105798;1270;61524;-70
2021/12/02 01:29:22;;;;;;;8.80;5.10;;;;;;;3.93;58.91;99901.60;106080;1269;72181;-71
2021/12/02 01:31:53;;;;;;;7.10;5.00;;;;;;;3.93;58.87;99897.45;106016;1271;72085;-70
2021/12/02 01:34:25;;;;;;;9.50;6.10;;;;;;;3.94;58.99;99900.17;106087;1270;70386;-73
2021/12/02 01:36:54;;;;;;;8.70;5.40;;;;;;;3.91;59.28;99899.65;105930;1270;74891;-70
2021/12/02 01:39:24;;;;;;;8.40;5.30;;;;;;;3.89;59.25;99900.42;106163;1266;59456;-70
2021/12/02 01:41:58;;;;;;;8.50;5.40;;;;;;;3.91;59.11;99899.96;106196;1270;60140;-70
2021/12/02 01:44:28;;;;;;;8.10;5.00;;;;;;;3.90;59.78;99899.34;105987;1268;73840;-73
2021/12/02 01:46:58;;;;;;;8.00;5.20;;;;;;;3.86;59.95;99901.31;105973;1270;72624;-72
2021/12/02 01:49:32;;;;;;;7.10;3.80;;;;;;;3.86;60.23;99894.58;105894;1271;68623;-70
2021/12/02 01:52:02;;;;;;;8.20;5.40;;;;;;;3.88;60.19;99888.27;105988;1268;74295;-72
2021/12/02 01:54:31;;;;;;;11.70;6.80;;;;;;;3.86;60.46;99890.97;105898;1270;60781;-73
2021/12/02 01:57:07;;;;;;;7.90;5.50;;;;;;;3.85;60.24;99892.77;105877;1271;59627;-73
2021/12/02 01:59:38;;;;;;;;;;;;;;;3.85;60.17;99893.42;106160;1268;74049;-74
2021/12/02 02:02:10;;;;;;;8.20;5.40;;;;;;;3.88;60.38;99888.64;106130;1269;71121;-72
2021/12/02 02:04:39;;;;;;;8.80;5.40;;;;;;;3.94;60.60;99882.23;106109;1268;68733;-70
2021/12/02 02:07:13;;;;;;;6.50;4.40;;;;;;;3.97;60.56;99892.39;106122;1268;71960;-70
2021/12/02 02:09:42;;;;;;;9.40;5.60;;;;;;;4.01;60.29;99899.27;106006;1271;58802;-70
2021/12/02 02:12:13;;;;;;;7.50;5.00;;;;;;;4.02;60.37;99898.86;105655;1271;60318;-72
2021/12/02 02:14:42;;;;;;;9.70;5.60;;;;;;;4.03;60.10;99886.23;106139;1266;73415;-72
2021/12/02 02:17:27;;;;;;;8.30;5.10;;;;;;;4.02;60.38;99885.39;106762;1270;71753;-71
2021/12/02 02:19:56;;;;;;;8.90;5.20;;;;;;;4.00;60.58;99882.22;105911;1270;69889;-73
2021/12/02 02:22:25;;;;;;;7.10;4.60;;;;;;;4.02;60.44;99881.78;105987;1269;72022;-73
2021/12/02 02:24:54;;;;;;;6.80;4.50;;;;;;;4.04;60.30;99882.89;106098;1270;59042;-73
2021/12/02 02:27:23;;;;;;;8.40;5.50;;;;;;;4.06;60.06;99888.07;105990;1268;59664;-72
2021/12/02 02:29:52;;;;;;;9.50;5.90;;;;;;;4.06;60.52;99884.16;106082;1268;73680;-72
2021/12/02 02:32:25;;;;;;;10.10;5.90;;;;;;;4.06;60.37;99882.38;105929;1271;73724;-70
2021/12/02 02:34:54;;;;;;;10.30;6.10;;;;;;;4.05;61.16;99871.77;105812;1271;69686;-71
2021/12/02 02:37:22;;;;;;;8.30;5.40;;;;;;;4.06;61.08;99881.38;106087;1269;73977;-69
2021/12/02 02:39:51;;;;;;;9.10;5.30;;;;;;;4.11;60.79;99884.89;106011;1269;62380;-70
2021/12/02 02:42:23;;;;;;;8.60;5.00;;;;;;;4.16;60.97;99896.11;105918;1268;60258;-73
2021/12/02 02:44:55;;;;;;;9.90;6.00;;;;;;;4.22;60.54;99905.90;106076;1271;73090;-73
2021/12/02 02:47:26;;;;;;;10.00;4.60;;;;;;;4.27;60.27;99907.23;105968;1271;68743;-73
2021/12/02 02:49:56;;;;;;;7.80;4.40;;;;;;;4.31;59.96;99906.45;106107;1269;68747;-72
2021/12/02 02:52:25;;;;;;;8.50;4.90;;;;;;;4.35;60.06;99906.39;105889;1271;71253;-70
2021/12/02 02:54:54;;;;;;;11.00;6.40;;;;;;;4.39;60.05;99911.64;106029;1270;59787;-71
2021/12/02 02:57:26;;;;;;;7.90;4.40;;;;;;;4.34;59.96;99912.44;105929;1270;60857;-71
2021/12/02 03:02:34;;;;;;;8.80;5.50;;;;;;;4.40;59.97;99902.63;105819;1271;70411;-71
2021/12/02 03:07:42;;;;;;;8.70;4.70;;;;;;;4.45;59.52;99896.97;106162;1268;74158;-72
2021/12/02 03:10:19;;;;;;;7.50;5.10;;;;;;;4.47;59.64;99890.61;105814;1269;61626;-70
2021/12/02 03:17:49;;;;;;;10.00;5.10;;;;;;;4.50;59.58;99890.80;105920;1271;72797;-69
2021/12/02 03:20:18;;;;;;;9.20;4.60;;;;;;;4.50;59.62;99887.54;106156;1270;68953;-70
2021/12/02 03:22:46;;;;;;;8.50;4.70;;;;;;;4.50;59.80;99890.65;106012;1271;75251;-69
2021/12/02 03:25:15;;;;;;;7.80;4.80;;;;;;;4.53;59.62;99884.08;106000;1271;60252;-69
2021/12/02 03:27:44;;;;;;;6.90;4.50;;;;;;;4.57;59.67;99876.95;106021;1271;59474;-71
2021/12/02 03:30:13;;;;;;;8.30;4.70;;;;;;;4.63;59.71;99885.55;106062;1269;73627;-70
2021/12/02 03:32:43;;;;;;;8.40;5.10;;;;;;;4.69;59.75;99881.39;105831;1271;72666;-70
2021/12/02 03:35:12;;;;;;;8.00;4.50;;;;;;;4.75;59.98;99879.10;105962;1271;68702;-69
2021/12/02 03:37:41;;;;;;;9.10;4.50;;;;;;;4.79;59.17;99873.57;105975;1269;73049;-70
2021/12/02 03:40:12;;;;;;;8.10;4.60;;;;;;;4.82;59.41;99872.98;105982;1268;61162;-70
2021/12/02 03:42:50;;;;;;;8.60;4.80;;;;;;;4.85;58.98;99866.93;106058;1270;60146;-70
2021/12/02 03:45:19;;;;;;;9.40;4.80;;;;;;;4.92;58.77;99868.95;106072;1269;73675;-71
2021/12/02 03:47:48;;;;;;;6.90;4.10;;;;;;;4.95;59.12;99873.91;105772;1271;70350;-68
2021/12/02 03:50:16;;;;;;;8.20;5.00;;;;;;;5.01;58.85;99870.59;105868;1271;71059;-72
2021/12/02 03:52:45;;;;;;;7.10;4.20;;;;;;;5.04;58.60;99869.54;105994;1269;74607;-70
2021/12/02 03:55:14;;;;;;;8.10;4.30;;;;;;;5.02;58.89;99874.17;105983;1270;58973;-71
2021/12/02 03:57:45;;;;;;;7.70;4.70;;;;;;;5.02;58.66;99875.00;105978;1271;59737;-72
2021/12/02 04:00:14;;;;;;;8.60;4.20;;;;;;;5.01;58.75;99868.71;105996;1268;74363;-69
2021/12/02 04:02:43;;;;;;;8.40;4.00;;;;;;;5.03;58.97;99870.64;105920;1271;69685;-71
2021/12/02 04:05:12;;;;;;;7.20;4.40;;;;;;;5.05;59.03;99875.85;105833;1272;68724;-69
2021/12/02 04:07:41;;;;;;;8.90;4.70;;;;;;;5.08;58.58;99873.10;105901;1268;72765;-72
2021/12/02 04:10:10;;;;;;;7.60;5.00;;;;;;;5.10;58.75;99880.61;105661;1272;61159;-70
2021/12/02 04:15:21;;;;;;;11.20;5.70;;;;;;;5.05;58.88;99876.23;105896;1272;73174;-73
2021/12/02 04:17:51;;;;;;;8.50;5.00;;;;;;;5.01;58.82;99878.35;105863;1272;69639;-71
2021/12/02 04:20:22;;;;;;;10.00;5.10;;;;;;;5.00;58.88;99880.70;106018;1272;69810;-74
2021/12/02 04:22:52;;;;;;;11.50;5.90;;;;;;;4.97;58.95;99883.59;105956;1272;71917;-73
2021/12/02 04:25:21;;;;;;;13.00;5.60;;;;;;;4.92;58.97;99883.59;105997;1272;59281;-69
2021/12/02 04:27:51;;;;;;;11.40;6.20;;;;;;;4.89;59.08;99884.67;106070;1272;58996;-71
2021/12/02 04:30:23;;;;;;;11.50;5.80;;;;;;;4.85;59.78;99881.61;106004;1272;71720;-76
2021/12/02 04:32:53;;;;;;;9.30;6.10;;;;;;;4.86;59.25;99887.93;106033;1271;70397;-71
2021/12/02 04:35:22;;;;;;;11.80;6.20;;;;;;;4.87;59.45;99884.98;105829;1271;69765;-72
2021/12/02 04:37:53;;;;;;;10.60;6.90;;;;;;;4.91;59.69;99884.17;104504;1268;1944408;-73
2021/12/02 04:40:24;;;;;;;12.30;6.80;;;;;;;4.91;59.30;99881.63;105703;1271;59789;-73
2021/12/02 04:42:54;;;;;;;13.60;7.50;;;;;;;4.92;59.60;99876.55;105879;1269;61865;-70
2021/12/02 04:45:22;;;;;;;9.80;5.80;;;;;;;4.92;59.42;99876.19;105925;1268;72383;-70
2021/12/02 04:47:51;;;;;;;10.40;6.00;;;;;;;4.93;59.05;99875.92;105821;1271;73622;-70
2021/12/02 04:50:20;;;;;;;10.30;6.60;;;;;;;4.96;59.21;99870.05;106174;1269;66966;-70
2021/12/02 04:52:50;;;;;;;17.10;8.20;;;;;;;4.97;58.99;99875.83;105798;1271;72339;-69
2021/12/02 04:55:19;;;;;;;17.10;7.70;;;;;;;4.89;59.48;99877.59;105959;1271;60981;-70
2021/12/02 04:57:48;;;;;;;18.60;10.30;;;;;;;4.88;59.07;99873.66;106279;1268;59246;-70
2021/12/02 05:00:17;;;;;;;12.80;6.70;;;;;;;4.85;59.45;99877.66;105980;1271;71429;-72
2021/12/02 05:02:46;;;;;;;11.90;6.30;;;;;;;4.82;59.42;99882.50;105827;1268;70741;-73
2021/12/02 05:05:16;;;;;;;17.10;6.70;;;;;;;4.78;59.40;99878.58;105923;1271;68036;-69
2021/12/02 05:07:46;;;;;;;10.50;6.30;;;;;;;4.77;59.65;99873.50;105915;1271;71420;-67
2021/12/02 05:10:15;;;;;;;11.90;5.80;;;;;;;4.76;59.90;99874.39;105770;1272;59265;-68
2021/12/02 05:12:44;;;;;;;9.50;5.90;;;;;;;4.76;60.10;99878.88;105959;1271;58974;-66
2021/12/02 05:15:13;;;;;;;11.80;6.10;;;;;;;4.78;60.09;99887.74;105942;1272;70194;-67
2021/12/02 05:17:42;;;;;;;12.00;6.60;;;;;;;4.80;59.98;99881.54;105831;1272;69689;-70
2021/12/02 05:20:11;;;;;;;12.80;7.40;;;;;;;4.87;60.22;99872.54;105961;1271;68753;-68
2021/12/02 05:22:40;;;;;;;14.60;7.10;;;;;;;4.93;60.40;99870.59;105889;1272;71277;-70
2021/12/02 05:25:09;;;;;;;11.40;6.80;;;;;;;4.95;60.36;99876.85;105882;1272;60566;-71
2021/12/02 05:27:38;;;;;;;13.40;6.50;;;;;;;4.97;60.06;99876.89;105987;1272;59343;-73
2021/12/02 05:30:08;;;;;;;14.70;10.00;;;;;;;4.98;59.82;99883.56;105913;1274;73680;-70
2021/12/02 05:32:37;;;;;;;13.70;8.70;;;;;;;4.97;60.69;99876.55;105867;1271;74071;-68
2021/12/02 05:35:07;;;;;;;18.30;7.10;;;;;;;4.97;60.93;99878.46;105889;1272;70304;-68
2021/12/02 05:37:36;;;;;;;12.20;7.10;;;;;;;4.94;60.61;99879.32;105870;1273;72969;-69
2021/12/02 05:40:06;;;;;;;14.80;7.50;;;;;;;4.94;60.12;99880.73;105886;1273;59076;-69
2021/12/02 05:42:35;;;;;;;12.80;7.00;;;;;;;4.95;60.64;99888.25;105883;1272;59839;-69
2021/12/02 05:45:05;;;;;;;13.10;7.40;;;;;;;4.99;60.56;99890.05;105930;1272;72301;-68
2021/12/02 05:47:33;;;;;;;12.40;6.90;;;;;;;5.01;60.03;99888.71;105965;1271;72283;-70
2021/12/02 05:50:03;;;;;;;15.60;8.60;;;;;;;5.06;59.95;99882.56;105956;1271;69546;-73
2021/12/02 05:52:31;;;;;;;20.80;11.40;;;;;;;5.10;59.91;99878.55;105949;1271;72330;-66
2021/12/02 05:55:00;;;;;;;22.00;14.40;;;;;;;5.11;59.66;99877.73;105947;1272;60771;-70
2021/12/02 05:57:31;;;;;;;28.70;13.90;;;;;;;5.04;60.20;99875.23;105817;1273;60149;-68
2021/12/02 06:00:00;;;;;;;27.50;15.60;;;;;;;5.04;60.29;99870.76;105884;1271;73362;-69
2021/12/02 06:02:39;;;;;;;26.60;15.20;;;;;;;4.86;61.09;99867.92;105907;1272;74016;-68
2021/12/02 06:05:08;;;;;;;30.10;13.90;;;;;;;4.74;61.74;99872.65;105861;1272;70249;-69
2021/12/02 06:07:37;;;;;;;26.40;14.70;;;;;;;4.74;61.29;99866.41;108124;1271;71698;-71
2021/12/02 06:10:07;;;;;;;28.80;15.10;;;;;;;4.70;61.66;99870.27;108114;1271;60802;-70
2021/12/02 06:12:36;;;;;;;28.30;15.70;;;;;;;4.48;62.78;99872.83;106843;1272;62305;-72
2021/12/02 06:15:06;;;;;;;26.70;14.40;;;;;;;4.48;63.26;99874.21;105637;1272;73809;-73
2021/12/02 06:17:36;;;;;;;30.20;15.00;;;;;;;4.50;62.92;99879.96;105700;1271;73068;-70
2021/12/02 06:20:06;;;;;;;24.00;14.40;;;;;;;4.49;62.73;99881.55;105855;1272;71360;-74
2021/12/02 06:22:34;;;;;;;27.80;14.00;;;;;;;4.52;61.97;99887.91;105804;1271;73559;-75
2021/12/02 06:27:47;;;;;;;29.10;14.30;;;;;;;4.31;63.29;99878.04;105784;1271;59588;-74
2021/12/02 06:30:20;;;;;;;24.50;14.30;;;;;;;4.26;63.90;99862.62;106021;1271;72954;-76
2021/12/02 06:32:49;;;;;;;28.50;14.70;;;;;;;4.33;63.72;99860.48;105818;1271;69646;-72
2021/12/02 06:35:18;;;;;;;29.70;13.50;;;;;;;4.38;63.40;99870.66;106033;1271;67665;-74
2021/12/02 06:37:48;;;;;;;24.40;13.20;;;;;;;4.47;63.04;99873.02;105902;1271;73343;-72
2021/12/02 06:40:17;;;;;;;27.20;13.20;;;;;;;4.55;62.56;99874.30;105982;1268;58881;-71
2021/12/02 06:42:46;;;;;;;29.70;14.10;;;;;;;4.61;62.92;99876.73;105821;1271;61807;-70
2021/12/02 06:45:15;;;;;;;21.90;13.30;;;;;;;4.67;62.75;99882.36;105934;1271;72078;-71
2021/12/02 06:47:51;;;;;;;26.70;13.40;;;;;;;4.71;62.40;99888.84;105993;1271;72317;-81
2021/12/02 06:50:20;;;;;;;31.80;14.20;;;;;;;4.66;62.36;99889.36;105885;1272;71055;-71
2021/12/02 06:52:52;;;;;;;30.30;15.30;;;;;;;4.70;62.46;99890.16;105944;1271;72403;-70
2021/12/02 06:55:21;;;;;;;30.80;15.60;;;;;;;4.77;62.68;99893.48;105619;1271;59367;-73
2021/12/02 06:57:50;;;;;;;21.10;12.60;;;;;;;4.83;62.23;99886.05;105825;1271;61659;-78
2021/12/02 07:00:21;;;;;;;26.60;12.80;;;;;;;5.00;61.86;99883.48;105799;1269;74263;-66
2021/12/02 07:02:52;;;;;;;25.60;13.90;;;;;;;5.11;62.24;99889.48;105702;1271;72805;-66
2021/12/02 07:05:24;;;;;;;24.60;13.00;;;;;;;5.25;61.62;99893.60;105658;1270;69258;-64
2021/12/02 07:07:53;;;;;;;26.70;11.60;;;;;;;5.33;61.27;99892.21;105865;1272;71511;-69
2021/12/02 07:10:24;;;;;;;19.30;12.10;;;;;;;5.47;60.78;99896.71;105805;1269;59426;-69
2021/12/02 07:12:57;;;;;;;18.50;11.00;;;;;;;5.59;60.35;99892.28;105792;1272;61333;-70
2021/12/02 07:15:30;;;;;;;16.40;10.60;;;;;;;5.70;59.89;99891.61;105720;1272;71337;-70
2021/12/02 07:18:00;;;;;;;15.60;11.30;;;;;;;5.75;60.09;99879.66;105919;1272;72853;-70
2021/12/02 07:20:34;;;;;;;21.20;10.60;;;;;;;5.81;59.67;99869.78;105841;1272;68617;-70
2021/12/02 07:23:03;;;;;;;20.70;10.80;;;;;;;5.91;58.93;99870.34;105943;1272;73962;-70
2021/12/02 07:25:32;;;;;;;16.60;10.00;;;;;;;5.96;58.87;99877.62;105948;1269;61107;-70
2021/12/02 07:28:01;;;;;;;20.60;12.00;;;;;;;6.01;58.07;99891.80;106138;1269;59336;-71
2021/12/02 07:30:30;;;;;;;25.20;11.90;;;;;;;6.05;58.02;99885.35;105884;1272;70945;-71
2021/12/02 07:33:00;;;;;;;30.30;17.20;;;;;;;6.11;58.59;99871.60;106065;1271;72420;-69
2021/12/02 07:35:29;;;;;;;28.20;16.90;;;;;;;6.18;57.75;99869.92;106064;1271;68507;-70
2021/12/02 07:37:59;;;;;;;22.60;13.90;;;;;;;6.22;57.64;99871.08;106066;1270;70393;-69
2021/12/02 07:40:33;;;;;;;20.20;12.00;;;;;;;6.24;57.70;99873.52;105835;1272;59848;-74
2021/12/02 07:43:03;;;;;;;23.80;12.20;;;;;;;6.26;57.63;99873.02;105914;1272;61324;-70
2021/12/02 07:45:35;;;;;;;24.50;13.40;;;;;;;6.26;58.34;99861.29;105817;1270;74273;-69
2021/12/02 07:48:06;;;;;;;23.30;11.40;;;;;;;6.29;57.75;99861.05;105770;1272;70798;-69
2021/12/02 07:50:36;;;;;;;22.40;12.00;;;;;;;6.32;57.56;99860.52;105675;1271;71174;-71
2021/12/02 07:53:08;;;;;;;27.70;13.10;;;;;;;6.32;57.78;99866.23;105844;1269;72482;-71
2021/12/02 07:55:39;;;;;;;25.60;14.00;;;;;;;6.32;57.76;99864.67;105897;1272;59071;-73
2021/12/02 07:58:11;;;;;;;23.40;12.60;;;;;;;6.38;58.01;99863.25;105954;1270;60025;-69
2021/12/02 08:00:41;;;;;;;23.80;12.00;;;;;;;6.43;58.04;99861.64;105708;1272;73269;-72
2021/12/02 08:03:11;;;;;;;21.50;12.30;;;;;;;6.52;57.96;99873.67;105934;1270;70411;-69
2021/12/02 08:05:42;;;;;;;20.90;11.00;;;;;;;6.59;57.79;99879.61;105656;1271;70459;-70
2021/12/02 08:08:12;;;;;;;20.90;12.00;;;;;;;6.69;57.77;99878.42;105922;1269;71880;-70
2021/12/02 08:10:41;;;;;;;20.30;10.40;;;;;;;6.78;56.76;99885.90;105734;1270;60060;-70
2021/12/02 08:13:10;;;;;;;25.30;10.90;;;;;;;6.91;56.21;99888.95;105823;1266;61179;-69
2021/12/02 08:15:38;;;;;;;18.60;9.20;;;;;;;7.04;56.53;99888.59;105961;1269;74953;-71
2021/12/02 08:18:08;;;;;;;19.80;9.70;;;;;;;7.16;55.54;99889.98;105729;1270;73452;-70
2021/12/02 08:20:37;;;;;;;13.90;8.30;;;;;;;7.28;55.20;99888.95;105928;1266;68298;-75
2021/12/02 08:23:06;;;;;;;20.90;9.90;;;;;;;7.41;55.61;99891.83;105833;1270;72572;-71
2021/12/02 08:25:35;;;;;;;18.10;8.90;;;;;;;7.53;54.90;99894.90;105892;1269;60490;-71
2021/12/02 08:28:04;;;;;;;19.80;11.30;;;;;;;7.64;53.56;99894.17;105759;1269;60666;-69
2021/12/02 08:30:34;;;;;;;21.10;11.40;;;;;;;7.74;53.71;99891.69;105840;1269;71238;-70
2021/12/02 08:33:04;;;;;;;15.10;9.00;;;;;;;7.86;54.08;99890.81;105745;1272;70422;-69
2021/12/02 08:35:34;;;;;;;15.90;8.60;;;;;;;7.96;52.99;99889.52;105751;1269;69770;-68
2021/12/02 08:38:11;;;;;;;16.90;8.40;;;;;;;8.06;52.55;99890.38;105642;1272;73026;-69
2021/12/02 08:40:42;;;;;;;16.20;8.20;;;;;;;8.17;51.97;99888.98;105818;1272;59377;-71
2021/12/02 08:43:12;;;;;;;17.20;8.80;;;;;;;8.30;51.46;99889.90;105801;1272;61254;-71
2021/12/02 08:45:43;;;;;;;20.90;11.80;;;;;;;8.46;52.49;99889.41;105812;1272;72457;-72
2021/12/02 08:48:12;;;;;;;17.50;9.10;;;;;;;8.62;52.83;99888.89;106081;1266;69766;-70
2021/12/02 08:50:41;;;;;;;16.80;9.00;;;;;;;8.78;53.01;99889.58;105825;1270;69453;-70
2021/12/02 08:53:10;;;;;;;18.70;8.60;;;;;;;8.92;52.44;99885.27;105980;1269;72974;-70
2021/12/02 08:55:39;;;;;;;20.50;9.70;;;;;;;9.07;52.66;99877.67;106045;1268;60560;-70
2021/12/02 08:58:09;;;;;;;21.50;8.80;;;;;;;9.22;52.55;99872.71;105848;1270;61925;-71
2021/12/02 09:00:40;;;;;;;17.00;8.10;;;;;;;9.36;51.84;99872.66;106054;1269;72251;-72
2021/12/02 09:03:13;;;;;;;19.00;8.90;;;;;;;9.48;49.26;99865.37;106119;1269;70902;-70
2021/12/02 09:05:43;;;;;;;18.30;8.80;;;;;;;9.63;50.25;99861.23;106095;1269;70789;-68
2021/12/02 09:08:13;;;;;;;13.10;7.10;;;;;;;9.77;49.02;99854.97;106169;1270;72796;-70
2021/12/02 09:10:42;;;;;;;11.60;5.60;;;;;;;9.99;47.16;99846.91;106078;1268;59804;-69
2021/12/02 09:13:11;;;;;;;10.60;4.90;;;;;;;10.16;46.37;99836.79;105828;1272;58977;-69
2021/12/02 09:15:40;;;;;;;10.70;4.70;;;;;;;10.39;45.06;99839.90;105868;1269;70576;-71
2021/12/02 09:18:09;;;;;;;4.60;2.30;;;;;;;10.60;44.07;99842.13;105928;1269;71065;-71
2021/12/02 09:20:38;;;;;;;8.50;3.30;;;;;;;10.75;43.60;99833.02;105905;1270;69186;-72
2021/12/02 09:23:07;;;;;;;4.50;2.50;;;;;;;10.75;43.89;99828.50;105985;1270;72562;-72
2021/12/02 09:25:36;;;;;;;8.80;2.90;;;;;;;10.87;43.18;99832.11;105954;1269;60214;-69
2021/12/02 09:28:05;;;;;;;4.80;2.50;;;;;;;10.98;42.62;99832.71;105991;1268;59156;-70
2021/12/02 09:30:36;;;;;;;8.00;3.30;;;;;;;11.04;42.47;99830.41;105666;1270;72779;-73
2021/12/02 09:33:05;;;;;;;5.60;2.90;;;;;;;11.12;42.29;99835.14;105670;1272;71192;-73
2021/12/02 09:35:35;;;;;;;5.20;3.10;;;;;;;11.22;42.10;99841.41;105833;1272;71248;-73
2021/12/02 09:38:08;;;;;;;6.30;3.30;;;;;;;11.25;42.36;99845.98;105904;1269;73509;-73
2021/12/02 09:40:37;;;;;;;7.80;3.40;;;;;;;11.40;41.48;99850.08;105801;1272;61004;-74
2021/12/02 09:43:10;;;;;;;5.90;3.40;;;;;;;11.53;41.00;99849.06;105874;1269;60515;-71
2021/12/02 09:45:40;;;;;;;5.60;3.00;;;;;;;11.57;41.13;99851.38;105963;1269;73617;-71
2021/12/02 09:48:09;;;;;;;9.20;4.10;;;;;;;11.69;40.83;99849.39;106019;1270;72378;-73
2021/12/02 09:50:50;;;;;;;7.00;4.20;;;;;;;11.69;40.76;99852.04;106060;1270;71701;-72
2021/12/02 09:53:23;;;;;;;8.10;4.80;;;;;;;11.76;40.27;99848.23;106012;1270;73193;-70
2021/12/02 09:56:07;;;;;;;9.60;4.50;;;;;;;11.73;41.13;99841.75;106020;1269;58979;-69
2021/12/02 09:58:36;;;;;;;10.60;4.20;;;;;;;11.78;40.73;99828.88;106093;1269;59359;-69
2021/12/02 10:01:10;;;;;;;10.50;4.90;;;;;;;11.83;40.54;99826.48;106076;1270;73130;-71
2021/12/02 10:03:46;;;;;;;6.90;4.40;;;;;;;11.89;40.33;99825.24;106096;1271;72426;-71
2021/12/02 10:06:21;;;;;;;14.10;7.30;;;;;;;11.90;40.08;99820.61;106017;1272;72210;-72
2021/12/02 10:08:55;;;;;;;8.80;6.30;;;;;;;11.90;40.29;99822.90;105857;1271;74390;-73
2021/12/02 10:11:41;;;;;;;9.40;6.00;;;;;;;11.88;40.23;99825.33;106071;1269;58964;-74
2021/12/02 10:14:39;;;;;;;9.40;5.90;;;;;;;11.95;39.85;99813.19;106048;1271;59476;-75
2021/12/02 10:17:15;;;;;;;7.00;3.70;;;;;;;12.00;39.59;99813.77;106112;1269;73662;-74
2021/12/02 10:25:58;;;;;;;6.40;3.60;;;;;;;12.00;39.04;99815.73;105919;1272;73354;-73
2021/12/02 10:28:45;;;;;;;5.20;2.60;;;;;;;11.92;39.16;99812.53;106190;1269;60364;-71
2021/12/02 10:31:25;;;;;;;9.60;3.10;;;;;;;11.96;38.89;99811.23;106118;1270;60483;-70
2021/12/02 10:33:57;;;;;;;7.80;2.60;;;;;;;11.93;38.87;99807.96;106122;1266;72849;-72
2021/12/02 10:36:27;;;;;;;8.20;3.20;;;;;;;11.88;38.86;99807.56;105986;1269;72746;-72
2021/12/02 10:39:08;;;;;;;4.40;2.30;;;;;;;11.88;39.07;99800.78;106185;1269;71129;-71
2021/12/02 10:41:42;;;;;;;5.40;2.30;;;;;;;11.73;38.92;99791.80;106103;1270;72766;-73
2021/12/02 10:44:17;;;;;;;3.60;1.80;;;;;;;11.84;38.71;99791.54;106022;1269;59280;-72
2021/12/02 10:46:55;;;;;;;3.60;1.90;;;;;;;11.83;38.49;99789.52;106109;1269;59749;-74
2021/12/02 10:49:48;;;;;;;6.20;2.40;;;;;;;11.82;38.52;99786.69;105930;1269;72711;-71
2021/12/02 10:52:31;;;;;;;4.70;2.40;;;;;;;11.76;38.68;99783.48;105917;1269;72991;-72
2021/12/02 10:55:07;;;;;;;;;;;;;;;11.77;38.53;99795.30;106125;1269;69595;-72
2021/12/02 10:57:51;;;;;;;5.00;2.50;;;;;;;11.67;38.83;99796.35;105978;1266;72932;-72
2021/12/02 11:00:25;;;;;;;4.30;2.50;;;;;;;11.61;39.20;99796.91;105875;1270;60602;-69
2021/12/02 11:02:57;;;;;;;7.70;2.90;;;;;;;11.55;39.35;99791.20;105773;1271;60099;-71
2021/12/02 11:05:32;;;;;;;5.40;2.40;;;;;;;11.50;39.57;99788.17;105850;1270;70255;-70
2021/12/02 11:08:09;;;;;;;5.40;2.20;;;;;;;11.48;39.71;99777.35;105818;1270;72327;-71
2021/12/02 11:10:44;;;;;;;6.60;2.70;;;;;;;11.41;39.95;99777.48;105795;1269;69204;-71
2021/12/02 11:13:24;;;;;;;3.10;1.80;;;;;;;11.41;39.89;99775.71;105679;1270;73030;-71
2021/12/02 11:15:53;;;;;;;8.90;3.00;;;;;;;11.41;39.97;99769.13;105850;1269;59242;-72
2021/12/02 11:18:22;;;;;;;8.40;3.10;;;;;;;11.46;39.72;99766.79;105820;1269;59764;-71
2021/12/02 11:20:59;;;;;;;4.60;2.60;;;;;;;11.44;39.83;99766.55;105961;1270;74719;-72
2021/12/02 11:23:42;;;;;;;8.50;2.90;;;;;;;11.44;39.65;99762.93;105929;1270;73119;-72
2021/12/02 11:26:17;;;;;;;7.40;2.10;;;;;;;11.43;39.67;99752.75;105934;1266;70345;-74
2021/12/02 11:28:46;;;;;;;7.90;2.60;;;;;;;11.50;39.54;99746.16;105704;1269;73891;-73
2021/12/02 11:31:20;;;;;;;6.00;2.70;;;;;;;11.45;39.90;99740.70;105525;1270;62825;-72
2021/12/02 11:33:50;;;;;;;12.60;3.90;;;;;;;11.41;39.89;99737.91;105980;1266;61822;-73
2021/12/02 11:36:23;;;;;;;8.80;4.20;;;;;;;11.40;39.92;99739.73;105808;1270;73708;-74
2021/12/02 11:38:58;;;;;;;9.10;3.60;;;;;;;11.44;39.80;99735.70;105963;1266;74108;-73
2021/12/02 11:41:27;;;;;;;9.60;4.10;;;;;;;11.43;39.76;99737.56;106112;1266;68390;-74
2021/12/02 11:43:56;;;;;;;7.00;3.20;;;;;;;11.43;39.81;99737.21;105818;1269;71549;-72
2021/12/02 11:46:25;;;;;;;10.60;4.50;;;;;;;11.44;39.66;99738.33;105654;1269;59788;-74
2021/12/02 11:48:54;;;;;;;8.70;3.80;;;;;;;11.45;39.81;99739.49;105578;1271;59756;-74
2021/12/02 11:51:23;;;;;;;10.50;4.60;;;;;;;11.44;39.74;99739.69;105760;1269;72409;-74
2021/12/02 11:53:52;;;;;;;9.80;3.90;;;;;;;11.42;39.98;99747.38;105804;1270;72376;-73
2021/12/02 11:56:21;;;;;;;9.60;3.40;;;;;;;11.47;40.02;99755.35;105776;1268;70377;-74
2021/12/02 11:58:51;;;;;;;6.80;3.20;;;;;;;11.50;39.99;99752.77;105970;1269;72738;-78
2021/12/02 12:01:24;;;;;;;6.80;3.10;;;;;;;11.53;39.70;99749.53;106027;1270;61467;-73
2021/12/02 12:04:04;;;;;;;8.90;3.60;;;;;;;11.57;39.55;99746.92;105815;1269;61814;-70
2021/12/02 12:06:35;;;;;;;6.10;3.10;;;;;;;11.52;39.79;99740.05;105705;1271;71379;-71
2021/12/02 12:09:14;;;;;;;6.40;2.80;;;;;;;11.52;40.13;99743.21;105878;1269;72293;-71
2021/12/02 12:11:55;;;;;;;11.10;3.20;;;;;;;11.52;39.84;99742.50;105723;1272;71141;-70